Navios Altair — 3EGL8 — position and weather

sailwx.info

Track history (hours):
 
Tides and Currents Weather Stations Pressure Air Temp Water Temp Dewpoint Dewpoint Depression Visibility Wind Speed Wind Dir Waves Ship Positions

Navios Altair

Last reported at 2017-Oct-24 01:34 UTC. Time now 2017-Nov-24 05:47 UTC.
Position N 33°56' E 135°02'.
Warning: this ship's position is 31 days out of date.

Length 229 m; draft 8.5 m.

Type: Cargo ship. MMSI: 371324000.

Date/timePositionNaut miles runAvg speedWind from/ knotsBaromVisibWave heightAir tempDewpointWater temp
2017-Oct-24 01:34N 33°56' E 135°02'1 4.6
2017-Oct-24 01:26N 33°57' E 135°02'2 5.2
2017-Oct-24 00:59N 33°59' E 135°02'3 6.4
2017-Oct-24 00:30N 34°02' E 135°03'3 5.0
2017-Oct-24 00:00N 34°03' E 134°60'4 7.1
2017-Oct-23 23:30N 34°05' E 134°56'3 2.0
2017-Oct-23 21:51N 34°05' E 134°52'1 1.3
2017-Oct-23 21:27N 34°06' E 134°51'0 1.1
2017-Oct-23 21:00N 34°06' E 134°51'2 3.5
2017-Oct-23 20:30N 34°05' E 134°53'1 1.1
2017-Oct-23 19:57N 34°05' E 134°53'1 1.7
2017-Oct-23 19:24N 34°05' E 134°52'1 1.5
2017-Oct-23 18:45N 34°05' E 134°51'0 1.2
2017-Oct-23 18:30N 34°06' E 134°51'1 1.1
2017-Oct-23 17:57N 34°06' E 134°50'1 1.0
2017-Oct-23 17:27N 34°06' E 134°50'0 0.2
2017-Oct-23 16:39N 34°06' E 134°50'1 5.7
2017-Oct-23 16:29N 34°06' E 134°51'3 4.2
2017-Oct-23 15:52N 34°04' E 134°54'1 1.5
2017-Oct-23 15:22N 34°04' E 134°53'2 1.0
2017-Oct-23 13:39N 34°06' E 134°51'1 4.8
2017-Oct-23 13:30N 34°05' E 134°52'1 0.3
2017-Oct-23 10:55N 34°06' E 134°51'1 0.7
2017-Oct-23 10:11N 34°05' E 134°51'1 5.6
2017-Oct-23 10:00N 34°04' E 134°51'1 1.2
2017-Oct-23 09:24N 34°04' E 134°50'1 0.8
2017-Oct-23 08:16N 34°05' E 134°49'4 8.0
2017-Oct-23 07:47N 34°03' E 134°53'5 1.1
2017-Oct-23 03:31N 34°05' E 134°48'3 8.4
2017-Oct-23 03:11N 34°05' E 134°51'2 7.5
2017-Oct-23 02:57N 34°05' E 134°53'0 0.9
2017-Oct-23 02:26N 34°05' E 134°53'1 0.4
2017-Oct-22 23:21N 34°06' E 134°54'1 1.8
2017-Oct-22 22:57N 34°05' E 134°53'1 1.8
2017-Oct-22 22:30N 34°05' E 134°52'1 1.9
2017-Oct-22 21:42N 34°05' E 134°50'1 2.0
2017-Oct-22 21:24N 34°05' E 134°50'4 3.9
2017-Oct-22 20:24N 34°05' E 134°54'1 1.5
2017-Oct-22 19:59N 34°05' E 134°54'1 1.9
2017-Oct-22 19:21N 34°05' E 134°52'1 2.3
2017-Oct-22 18:58N 34°05' E 134°51'1 2.2
2017-Oct-22 18:27N 34°05' E 134°50'2 2.5
2017-Oct-22 17:47N 34°04' E 134°48'0 0.2
2017-Oct-22 15:50N 34°04' E 134°48'1 2.5
2017-Oct-22 15:28N 34°05' E 134°48'3 5.5
2017-Oct-22 14:59N 34°04' E 134°51'2 4.1
2017-Oct-22 14:30N 34°04' E 134°54'1 2.3
2017-Oct-22 14:00N 34°04' E 134°52'1 2.4
2017-Oct-22 13:29N 34°04' E 134°51'2 2.4
2017-Oct-22 12:38N 34°05' E 134°48'0 2.3
2017-Oct-22 12:30N 34°05' E 134°48'4 8.5
2017-Oct-22 12:00N 34°04' E 134°53'0 0.6
2017-Oct-22 11:30N 34°04' E 134°53'1 1.8
2017-Oct-22 10:52N 34°04' E 134°52'1 1.8
2017-Oct-22 10:30N 34°05' E 134°51'1 1.8
2017-Oct-22 10:00N 34°05' E 134°50'0 0.4
2017-Oct-22 09:26N 34°05' E 134°50'4 8.2
2017-Oct-22 08:56N 34°02' E 134°54'2 1.4
2017-Oct-22 07:39N 34°04' E 134°53'0 1.3
2017-Oct-22 07:30N 34°04' E 134°52'1 1.6
2017-Oct-22 06:56N 34°04' E 134°51'1 1.5
2017-Oct-22 06:30N 34°04' E 134°51'3 5.5
2017-Oct-22 05:58N 34°02' E 134°52'0 0.2
2017-Oct-22 04:28N 34°02' E 134°52'2 2.3
2017-Oct-22 03:44N 34°03' E 134°51'1 2.2
2017-Oct-22 03:16N 34°04' E 134°51'0 0.3
2017-Oct-22 02:56N 34°04' E 134°51'3 6.9
2017-Oct-22 02:28N 34°02' E 134°54'0 0.9
2017-Oct-22 02:00N 34°03' E 134°54'2 1.8
2017-Oct-22 00:49N 34°04' E 134°52'0 1.5
2017-Oct-22 00:30N 34°04' E 134°52'0 0.4
2017-Oct-21 23:59N 34°04' E 134°52'0 0.7
2017-Oct-21 23:26N 34°04' E 134°51'1 1.3
2017-Oct-21 22:59N 34°05' E 134°51'4 3.1
2017-Oct-21 21:40N 34°02' E 134°47'0 1.4
2017-Oct-21 21:24N 34°03' E 134°47'3 1.4
2017-Oct-21 19:21N 34°02' E 134°51'4 9.4
2017-Oct-21 18:58N 33°60' E 134°53'2 0.8
2017-Oct-21 16:07N 34°02' E 134°52'0 1.6
2017-Oct-21 15:58N 34°02' E 134°52'1 1.6
2017-Oct-21 15:03N 34°03' E 134°51'0 0.8
2017-Oct-21 14:48N 34°03' E 134°51'2 6.4
2017-Oct-21 14:29N 34°01' E 134°52'  
Track history (hours):
 
Tides and Currents Weather Stations Pressure Air Temp Water Temp Dewpoint Dewpoint Depression Visibility Wind Speed Wind Dir Waves Ship Positions

Navios Altair

Last reported at 2017-Oct-24 01:34 UTC. Time now 2017-Nov-24 05:47 UTC.
Position N 33°56' E 135°02'.
Warning: this ship's position is 31 days out of date.

Length 229 m; draft 8.5 m.

Type: Cargo ship. MMSI: 371324000.

Date/timePositionNaut miles runAvg speedWind from/ knotsBaromVisibWave heightAir tempDewpointWater temp
2017-Oct-24 01:34N 33°56' E 135°02'1 4.6
2017-Oct-24 01:26N 33°57' E 135°02'2 5.2
2017-Oct-24 00:59N 33°59' E 135°02'3 6.4
2017-Oct-24 00:30N 34°02' E 135°03'3 5.0
2017-Oct-24 00:00N 34°03' E 134°60'4 7.1
2017-Oct-23 23:30N 34°05' E 134°56'3 2.0
2017-Oct-23 21:51N 34°05' E 134°52'1 1.3
2017-Oct-23 21:27N 34°06' E 134°51'0 1.1
2017-Oct-23 21:00N 34°06' E 134°51'2 3.5
2017-Oct-23 20:30N 34°05' E 134°53'1 1.1
2017-Oct-23 19:57N 34°05' E 134°53'1 1.7
2017-Oct-23 19:24N 34°05' E 134°52'1 1.5
2017-Oct-23 18:45N 34°05' E 134°51'0 1.2
2017-Oct-23 18:30N 34°06' E 134°51'1 1.1
2017-Oct-23 17:57N 34°06' E 134°50'1 1.0
2017-Oct-23 17:27N 34°06' E 134°50'0 0.2
2017-Oct-23 16:39N 34°06' E 134°50'1 5.7
2017-Oct-23 16:29N 34°06' E 134°51'3 4.2
2017-Oct-23 15:52N 34°04' E 134°54'1 1.5
2017-Oct-23 15:22N 34°04' E 134°53'2 1.0
2017-Oct-23 13:39N 34°06' E 134°51'1 4.8
2017-Oct-23 13:30N 34°05' E 134°52'1 0.3
2017-Oct-23 10:55N 34°06' E 134°51'1 0.7
2017-Oct-23 10:11N 34°05' E 134°51'1 5.6
2017-Oct-23 10:00N 34°04' E 134°51'1 1.2
2017-Oct-23 09:24N 34°04' E 134°50'1 0.8
2017-Oct-23 08:16N 34°05' E 134°49'4 8.0
2017-Oct-23 07:47N 34°03' E 134°53'5 1.1
2017-Oct-23 03:31N 34°05' E 134°48'3 8.4
2017-Oct-23 03:11N 34°05' E 134°51'2 7.5
2017-Oct-23 02:57N 34°05' E 134°53'0 0.9
2017-Oct-23 02:26N 34°05' E 134°53'1 0.4
2017-Oct-22 23:21N 34°06' E 134°54'1 1.8
2017-Oct-22 22:57N 34°05' E 134°53'1 1.8
2017-Oct-22 22:30N 34°05' E 134°52'1 1.9
2017-Oct-22 21:42N 34°05' E 134°50'1 2.0
2017-Oct-22 21:24N 34°05' E 134°50'4 3.9
2017-Oct-22 20:24N 34°05' E 134°54'1 1.5
2017-Oct-22 19:59N 34°05' E 134°54'1 1.9
2017-Oct-22 19:21N 34°05' E 134°52'1 2.3
2017-Oct-22 18:58N 34°05' E 134°51'1 2.2
2017-Oct-22 18:27N 34°05' E 134°50'2 2.5
2017-Oct-22 17:47N 34°04' E 134°48'0 0.2
2017-Oct-22 15:50N 34°04' E 134°48'1 2.5
2017-Oct-22 15:28N 34°05' E 134°48'3 5.5
2017-Oct-22 14:59N 34°04' E 134°51'2 4.1
2017-Oct-22 14:30N 34°04' E 134°54'1 2.3
2017-Oct-22 14:00N 34°04' E 134°52'1 2.4
2017-Oct-22 13:29N 34°04' E 134°51'2 2.4
2017-Oct-22 12:38N 34°05' E 134°48'0 2.3
2017-Oct-22 12:30N 34°05' E 134°48'4 8.5
2017-Oct-22 12:00N 34°04' E 134°53'0 0.6
2017-Oct-22 11:30N 34°04' E 134°53'1 1.8
2017-Oct-22 10:52N 34°04' E 134°52'1 1.8
2017-Oct-22 10:30N 34°05' E 134°51'1 1.8
2017-Oct-22 10:00N 34°05' E 134°50'0 0.4
2017-Oct-22 09:26N 34°05' E 134°50'4 8.2
2017-Oct-22 08:56N 34°02' E 134°54'2 1.4
2017-Oct-22 07:39N 34°04' E 134°53'0 1.3
2017-Oct-22 07:30N 34°04' E 134°52'1 1.6
2017-Oct-22 06:56N 34°04' E 134°51'1 1.5
2017-Oct-22 06:30N 34°04' E 134°51'3 5.5
2017-Oct-22 05:58N 34°02' E 134°52'0 0.2
2017-Oct-22 04:28N 34°02' E 134°52'2 2.3
2017-Oct-22 03:44N 34°03' E 134°51'1 2.2
2017-Oct-22 03:16N 34°04' E 134°51'0 0.3
2017-Oct-22 02:56N 34°04' E 134°51'3 6.9
2017-Oct-22 02:28N 34°02' E 134°54'0 0.9
2017-Oct-22 02:00N 34°03' E 134°54'2 1.8
2017-Oct-22 00:49N 34°04' E 134°52'0 1.5
2017-Oct-22 00:30N 34°04' E 134°52'0 0.4
2017-Oct-21 23:59N 34°04' E 134°52'0 0.7
2017-Oct-21 23:26N 34°04' E 134°51'1 1.3
2017-Oct-21 22:59N 34°05' E 134°51'4 3.1
2017-Oct-21 21:40N 34°02' E 134°47'0 1.4
2017-Oct-21 21:24N 34°03' E 134°47'3 1.4
2017-Oct-21 19:21N 34°02' E 134°51'4 9.4
2017-Oct-21 18:58N 33°60' E 134°53'2 0.8
2017-Oct-21 16:07N 34°02' E 134°52'0 1.6
2017-Oct-21 15:58N 34°02' E 134°52'1 1.6
2017-Oct-21 15:03N 34°03' E 134°51'0 0.8
2017-Oct-21 14:48N 34°03' E 134°51'2 6.4
2017-Oct-21 14:29N 34°01' E 134°52'  

Dump ship's entire track history